createdAt,value
2018-09-30T00:01:10.609Z,4.30
2018-09-30T00:06:29.304Z,4.27
2018-09-30T00:11:47.986Z,4.24
2018-09-30T00:17:06.657Z,4.22
2018-09-30T00:22:25.362Z,4.21
2018-09-30T00:27:43.988Z,4.16
2018-09-30T00:33:02.645Z,4.12
2018-09-30T00:38:21.353Z,4.12
2018-09-30T00:43:40.236Z,4.03
2018-09-30T00:48:58.856Z,4.08
2018-09-30T00:54:17.521Z,4.01
2018-09-30T00:59:36.171Z,3.98
2018-09-30T01:04:54.923Z,4.04
2018-09-30T01:10:13.568Z,4.01
2018-09-30T01:15:32.158Z,3.96
2018-09-30T01:20:50.990Z,3.90
2018-09-30T01:26:09.754Z,3.81
2018-09-30T01:31:28.435Z,3.91
2018-09-30T01:36:47.214Z,3.79
2018-09-30T01:42:05.985Z,3.74
2018-09-30T01:47:24.691Z,3.69
2018-09-30T01:52:54.857Z,3.64
2018-09-30T01:58:13.493Z,3.64
2018-09-30T02:03:32.083Z,3.69
2018-09-30T02:08:50.694Z,3.60
2018-09-30T02:14:09.343Z,3.54
2018-09-30T02:19:27.951Z,3.40
2018-09-30T02:24:46.676Z,3.40
2018-09-30T02:30:06.588Z,3.37
2018-09-30T02:35:25.235Z,3.25
2018-09-30T02:40:43.998Z,3.21
2018-09-30T02:46:02.648Z,3.24
2018-09-30T02:51:21.260Z,3.08
2018-09-30T02:56:39.862Z,3.20
2018-09-30T03:01:58.621Z,3.06
2018-09-30T03:07:22.515Z,2.95
2018-09-30T03:12:41.278Z,2.96
2018-09-30T03:17:59.950Z,2.95
2018-09-30T03:23:18.605Z,2.92
2018-09-30T03:28:37.266Z,2.90
2018-09-30T03:33:55.924Z,2.93
2018-09-30T03:39:14.512Z,2.89
2018-09-30T03:44:33.163Z,2.82
2018-09-30T03:49:51.840Z,2.79
2018-09-30T03:55:10.527Z,2.80
2018-09-30T04:00:29.239Z,2.77
2018-09-30T04:05:47.816Z,2.71
2018-09-30T04:11:06.589Z,2.81
2018-09-30T04:16:25.291Z,2.70
2018-09-30T04:21:43.931Z,2.74
2018-09-30T04:27:02.582Z,2.79
2018-09-30T04:32:21.277Z,2.80
2018-09-30T04:37:39.912Z,2.86
2018-09-30T04:42:58.783Z,2.92
2018-09-30T04:48:17.780Z,2.86
2018-09-30T04:53:36.399Z,2.86
2018-09-30T04:58:55.036Z,2.90
2018-09-30T05:04:13.660Z,2.87
2018-09-30T05:09:32.290Z,2.94
2018-09-30T05:14:50.979Z,3.00
2018-09-30T05:20:09.823Z,3.17
2018-09-30T05:25:28.509Z,3.09
2018-09-30T05:30:47.211Z,2.98
2018-09-30T05:36:05.854Z,3.06
2018-09-30T05:41:24.434Z,3.19
2018-09-30T05:46:43.158Z,3.40
2018-09-30T05:52:02.056Z,3.56
2018-09-30T05:57:20.636Z,3.61
2018-09-30T06:02:39.250Z,3.88
2018-09-30T06:07:57.867Z,4.00
2018-09-30T06:13:16.538Z,3.96
2018-09-30T06:18:35.690Z,4.00
2018-09-30T06:23:54.408Z,4.13
2018-09-30T06:29:13.114Z,4.26
2018-09-30T06:34:31.862Z,4.50
2018-09-30T06:39:51.404Z,4.69
2018-09-30T06:45:10.377Z,4.81
2018-09-30T06:50:29.010Z,5.04
2018-09-30T06:55:47.715Z,5.23
2018-09-30T07:01:06.404Z,5.48
2018-09-30T07:06:25.076Z,5.65
2018-09-30T07:11:43.742Z,5.85
2018-09-30T07:17:02.514Z,5.96
2018-09-30T07:22:22.346Z,6.20
2018-09-30T07:27:41.850Z,6.42
2018-09-30T07:33:00.562Z,6.64
2018-09-30T07:38:19.278Z,6.81
2018-09-30T07:43:37.951Z,7.08
2018-09-30T07:48:56.684Z,7.31
2018-09-30T07:54:15.564Z,7.45
2018-09-30T07:59:34.284Z,7.72
2018-09-30T08:04:52.987Z,8.10
2018-09-30T08:10:11.655Z,8.46
2018-09-30T08:15:30.390Z,8.86
2018-09-30T08:20:49.159Z,9.30
2018-09-30T08:26:07.920Z,9.42
2018-09-30T08:31:26.643Z,9.62
2018-09-30T08:36:45.406Z,9.84
2018-09-30T08:42:04.196Z,10.08
2018-09-30T08:47:23.006Z,10.41
2018-09-30T08:52:41.714Z,10.57
2018-09-30T08:58:00.331Z,10.83
2018-09-30T09:03:19.144Z,11.01
2018-09-30T09:08:37.840Z,11.16
2018-09-30T09:13:56.566Z,11.29
2018-09-30T09:19:15.293Z,11.51
2018-09-30T09:24:33.962Z,11.77
2018-09-30T09:29:52.760Z,11.81
2018-09-30T09:35:11.410Z,12.04
2018-09-30T09:40:30.155Z,12.12
2018-09-30T09:45:48.855Z,12.23
2018-09-30T09:51:07.780Z,12.26
2018-09-30T09:56:26.590Z,12.40
2018-09-30T10:01:45.430Z,12.45
2018-09-30T10:07:04.411Z,12.46
2018-09-30T10:12:23.051Z,12.53
2018-09-30T10:17:41.775Z,12.53
2018-09-30T10:23:00.681Z,12.56
2018-09-30T10:28:19.365Z,12.58
2018-09-30T10:33:38.675Z,12.58
2018-09-30T10:38:57.628Z,12.67
2018-09-30T10:44:16.426Z,12.84
2018-09-30T10:49:35.316Z,12.91
2018-09-30T10:54:54.053Z,12.86
2018-09-30T11:00:12.731Z,13.00
2018-09-30T11:05:31.372Z,13.04
2018-09-30T11:10:50.130Z,13.12
2018-09-30T11:16:08.963Z,13.27
2018-09-30T11:21:27.860Z,13.31
2018-09-30T11:26:46.639Z,13.61
2018-09-30T11:32:05.503Z,13.83
2018-09-30T11:37:24.395Z,13.82
2018-09-30T11:42:43.139Z,13.78
2018-09-30T11:48:01.982Z,13.83
2018-09-30T11:53:21.825Z,13.95
2018-09-30T11:58:41.945Z,14.08
2018-09-30T12:04:00.752Z,14.15
2018-09-30T12:09:19.741Z,14.35
2018-09-30T12:14:38.673Z,14.43
2018-09-30T12:19:57.744Z,14.38
2018-09-30T12:25:16.420Z,14.43
2018-09-30T12:30:35.222Z,14.52
2018-09-30T12:35:54.014Z,14.74
2018-09-30T12:41:12.806Z,14.81
2018-09-30T12:46:31.511Z,14.88
2018-09-30T12:51:50.388Z,14.80
2018-09-30T12:57:09.160Z,14.78
2018-09-30T13:02:28.118Z,14.79
2018-09-30T13:07:46.964Z,14.87
2018-09-30T13:13:05.760Z,15.04
2018-09-30T13:18:24.573Z,15.08
2018-09-30T13:23:43.445Z,15.00
2018-09-30T13:29:02.515Z,15.06
2018-09-30T13:34:21.209Z,15.09
2018-09-30T13:39:40.390Z,15.12
2018-09-30T13:44:59.769Z,14.99
2018-09-30T13:50:18.531Z,15.08
2018-09-30T13:55:37.450Z,15.13
2018-09-30T14:00:56.320Z,15.27
2018-09-30T14:06:19.024Z,15.16
2018-09-30T14:11:37.920Z,15.13
2018-09-30T14:16:56.603Z,15.11
2018-09-30T14:22:15.665Z,15.17
2018-09-30T14:27:34.538Z,15.22
2018-09-30T14:32:53.277Z,15.18
2018-09-30T14:38:11.971Z,15.04
2018-09-30T14:43:30.790Z,15.08
2018-09-30T14:48:49.551Z,15.08
2018-09-30T14:54:08.809Z,15.09
2018-09-30T14:59:27.557Z,14.92
2018-09-30T15:04:46.275Z,14.89
2018-09-30T15:10:05.121Z,14.87
2018-09-30T15:15:24.038Z,14.85
2018-09-30T15:20:42.843Z,14.79
2018-09-30T15:26:01.611Z,14.80
2018-09-30T15:31:20.374Z,14.63
2018-09-30T15:36:39.159Z,14.61
2018-09-30T15:41:58.184Z,14.53
2018-09-30T15:47:17.066Z,14.41
2018-09-30T15:52:35.946Z,14.35
2018-09-30T15:57:54.644Z,14.35
2018-09-30T16:03:13.578Z,14.27
2018-09-30T16:08:32.340Z,14.32
2018-09-30T16:13:51.119Z,14.12
2018-09-30T16:19:10.215Z,13.94
2018-09-30T16:24:29.010Z,13.87
2018-09-30T16:29:47.781Z,13.68
2018-09-30T16:35:06.646Z,13.56
2018-09-30T16:40:25.355Z,13.23
2018-09-30T16:45:44.024Z,12.96
2018-09-30T16:51:02.679Z,12.58
2018-09-30T16:56:21.320Z,12.33
2018-09-30T17:01:39.995Z,12.19
2018-09-30T17:06:58.762Z,12.10
2018-09-30T17:12:17.437Z,11.95
2018-09-30T17:17:36.332Z,11.83
2018-09-30T17:28:31.538Z,11.55
2018-09-30T17:33:50.204Z,11.38
2018-09-30T17:39:10.086Z,11.18
2018-09-30T17:44:28.905Z,10.94
2018-09-30T17:49:47.578Z,10.73
2018-09-30T17:55:06.365Z,10.58
2018-09-30T18:00:24.991Z,10.43
2018-09-30T18:05:44.296Z,10.35
2018-09-30T18:11:03.909Z,10.19
2018-09-30T18:16:22.562Z,10.10
2018-09-30T18:21:41.381Z,9.91
2018-09-30T18:27:00.084Z,9.86
2018-09-30T18:32:19.022Z,9.76
2018-09-30T18:37:37.877Z,9.72
2018-09-30T18:42:56.540Z,9.54
2018-09-30T18:48:15.270Z,9.39
2018-09-30T18:53:33.942Z,9.29
2018-09-30T18:58:52.616Z,9.25
2018-09-30T19:04:11.565Z,9.13
2018-09-30T19:09:30.397Z,9.04
2018-09-30T19:14:49.036Z,9.00
2018-09-30T19:20:08.020Z,8.94
2018-09-30T19:25:26.687Z,8.95
2018-09-30T19:30:45.550Z,8.99
2018-09-30T19:36:04.379Z,9.04
2018-09-30T19:41:23.137Z,9.05
2018-09-30T19:46:41.892Z,8.98
2018-09-30T19:52:00.583Z,8.96
2018-09-30T19:57:19.408Z,8.96
2018-09-30T20:02:38.065Z,8.95
2018-09-30T20:07:56.887Z,8.83
2018-09-30T20:13:15.602Z,8.87
2018-09-30T20:18:34.229Z,8.83
2018-09-30T20:23:52.851Z,8.66
2018-09-30T20:29:11.570Z,8.63
2018-09-30T20:34:30.996Z,8.67
2018-09-30T20:39:49.727Z,8.66
2018-09-30T20:45:08.552Z,8.53
2018-09-30T20:50:27.213Z,8.55
2018-09-30T20:55:45.961Z,8.50
2018-09-30T21:01:04.579Z,8.48
2018-09-30T21:06:27.507Z,8.44
2018-09-30T21:11:46.243Z,8.49
2018-09-30T21:17:04.972Z,8.41
2018-09-30T21:22:23.682Z,8.47
2018-09-30T21:27:42.352Z,8.41
2018-09-30T21:33:01.109Z,8.33
2018-09-30T21:38:20.409Z,8.31
2018-09-30T21:43:39.028Z,8.24
2018-09-30T21:48:57.803Z,8.19
2018-09-30T21:54:16.499Z,8.22
2018-09-30T21:59:35.203Z,8.13
2018-09-30T22:04:54.111Z,8.05
2018-09-30T22:10:12.858Z,8.02
2018-09-30T22:15:31.678Z,8.05
2018-09-30T22:20:50.283Z,8.18
2018-09-30T22:26:08.967Z,8.19
2018-09-30T22:31:27.703Z,8.18
2018-09-30T22:36:46.305Z,8.15
2018-09-30T22:42:04.983Z,8.12
2018-09-30T22:47:23.753Z,8.10
2018-09-30T22:52:42.432Z,7.99
2018-09-30T22:58:01.127Z,8.01
2018-09-30T23:03:22.604Z,8.01
2018-09-30T23:08:41.357Z,8.27
2018-09-30T23:14:00.054Z,8.38
2018-09-30T23:19:18.758Z,8.64
2018-09-30T23:24:37.412Z,8.56
2018-09-30T23:29:56.088Z,8.61
2018-09-30T23:35:14.716Z,8.71
2018-09-30T23:40:33.442Z,8.71
2018-09-30T23:45:52.091Z,8.78
2018-09-30T23:51:10.909Z,8.76
2018-09-30T23:56:29.688Z,8.78
